Time;durP1;ratioP1;P1;durP2;ratioP2;P2;SDS_P1;SDS_P2;PMS_P1;PMS_P2;Temp;Humidity;BMP_temperature;BMP_pressure;BME280_temperature;BME280_humidity;BME280_pressure;Samples;Min_cycle;Max_cycle;Signal;HPM_P1;HPM_P2
2021/09/20 00:01:42;;;;;;;0.10;0.10;;;;;;;;;;5078662;28;20131;-89
2021/09/20 00:04:08;;;;;;;0.10;0.10;;;;;;;;;;5095084;28;20038;-90
2021/09/20 00:06:34;;;;;;;0.10;0.10;;;;;;;;;;5095061;28;20122;-89
2021/09/20 00:09:00;;;;;;;0.20;0.20;;;;;;;;;;5095291;28;20058;-89
2021/09/20 00:11:26;;;;;;;0.10;0.10;;;;;;;;;;5078721;28;20036;-91
2021/09/20 00:13:58;;;;;;;0.10;0.10;;;;;;;;;;5082178;28;20542;-96
2021/09/20 00:16:24;;;;;;;0.10;0.10;;;;;;;;;;5096027;28;20399;-90
2021/09/20 00:18:50;;;;;;;0.10;0.10;;;;;;;;;;5078527;28;20036;-90
2021/09/20 00:21:16;;;;;;;0.88;0.73;;;;;;;;;;5078594;28;20047;-90
2021/09/20 00:23:42;;;;;;;0.10;0.10;;;;;;;;;;5095096;28;20371;-89
2021/09/20 00:26:08;;;;;;;0.10;0.10;;;;;;;;;;5095054;28;20039;-90
2021/09/20 00:28:34;;;;;;;0.10;0.10;;;;;;;;;;5095026;28;20043;-90
2021/09/20 00:31:00;;;;;;;0.10;0.10;;;;;;;;;;5094851;28;20460;-90
2021/09/20 00:33:26;;;;;;;0.10;0.10;;;;;;;;;;5077872;28;20056;-90
2021/09/20 00:35:52;;;;;;;0.10;0.10;;;;;;;;;;5077962;28;20185;-90
2021/09/20 00:38:18;;;;;;;0.10;0.10;;;;;;;;;;5111764;28;20036;-89
2021/09/20 00:40:44;;;;;;;0.10;0.10;;;;;;;;;;5094633;28;20031;-89
2021/09/20 00:43:10;;;;;;;0.10;0.10;;;;;;;;;;5077664;28;20039;-90
2021/09/20 00:45:36;;;;;;;0.10;0.10;;;;;;;;;;5077647;28;20139;-89
2021/09/20 00:48:02;;;;;;;0.10;0.10;;;;;;;;;;5094548;28;20039;-89
2021/09/20 00:50:28;;;;;;;0.10;0.10;;;;;;;;;;5077886;28;20047;-90
2021/09/20 00:52:54;;;;;;;0.10;0.10;;;;;;;;;;5077879;28;20059;-90
2021/09/20 00:55:20;;;;;;;0.10;0.10;;;;;;;;;;5077737;28;20130;-89
2021/09/20 00:57:46;;;;;;;0.10;0.10;;;;;;;;;;5094358;28;20036;-89
2021/09/20 01:00:12;;;;;;;0.10;0.10;;;;;;;;;;5077695;28;20036;-90
2021/09/20 01:02:38;;;;;;;0.10;0.10;;;;;;;;;;5077775;28;20083;-90
2021/09/20 01:05:04;;;;;;;0.10;0.10;;;;;;;;;;5094624;28;20039;-89
2021/09/20 01:07:30;;;;;;;0.10;0.10;;;;;;;;;;5077697;28;20081;-89
2021/09/20 01:09:56;;;;;;;0.10;0.10;;;;;;;;;;5094237;28;20035;-89
2021/09/20 01:12:22;;;;;;;0.10;0.10;;;;;;;;;;5077888;28;20065;-90
2021/09/20 01:14:48;;;;;;;0.10;0.10;;;;;;;;;;5094096;28;20529;-89
2021/09/20 01:17:14;;;;;;;0.10;0.10;;;;;;;;;;5098277;28;20036;-88
2021/09/20 01:19:40;;;;;;;0.10;0.10;;;;;;;;;;5115376;28;20584;-89
2021/09/20 01:22:25;;;;;;;0.10;0.10;;;;;;;;;;5081446;28;20054;-89
2021/09/20 01:24:53;;;;;;;0.10;0.10;;;;;;;;;;5081628;28;20036;-89
2021/09/20 01:27:19;;;;;;;0.15;0.15;;;;;;;;;;5098595;28;20066;-90
2021/09/20 01:29:46;;;;;;;0.10;0.10;;;;;;;;;;5098391;28;20486;-89
2021/09/20 01:32:12;;;;;;;0.10;0.10;;;;;;;;;;5115028;28;20040;-90
2021/09/20 01:34:38;;;;;;;0.52;0.52;;;;;;;;;;5098536;28;20491;-89
2021/09/20 01:37:04;;;;;;;0.10;0.10;;;;;;;;;;5114959;28;20122;-89
2021/09/20 01:39:31;;;;;;;0.10;0.10;;;;;;;;;;5098126;28;20109;-89
2021/09/20 01:41:57;;;;;;;0.10;0.10;;;;;;;;;;5098108;28;20402;-89
2021/09/20 01:44:23;;;;;;;0.10;0.10;;;;;;;;;;5098145;28;20036;-90
2021/09/20 01:46:49;;;;;;;0.10;0.10;;;;;;;;;;5098069;28;20500;-90
2021/09/20 01:49:15;;;;;;;0.10;0.10;;;;;;;;;;5114979;28;20043;-90
2021/09/20 01:51:41;;;;;;;0.10;0.10;;;;;;;;;;5098003;28;20077;-89
2021/09/20 01:54:07;;;;;;;0.10;0.10;;;;;;;;;;5097514;28;20197;-88
2021/09/20 01:56:33;;;;;;;0.10;0.10;;;;;;;;;;5097464;28;20051;-89
2021/09/20 01:58:59;;;;;;;0.10;0.10;;;;;;;;;;5080688;28;20098;-89
2021/09/20 02:01:26;;;;;;;0.20;0.20;;;;;;;;;;5097540;28;20039;-89
2021/09/20 02:03:52;;;;;;;0.20;0.20;;;;;;;;;;5097654;28;20039;-89
2021/09/20 02:06:18;;;;;;;0.10;0.10;;;;;;;;;;5097207;28;20082;-88
2021/09/20 02:08:44;;;;;;;0.10;0.10;;;;;;;;;;5097643;28;20083;-88
2021/09/20 02:11:10;;;;;;;0.10;0.10;;;;;;;;;;5097676;28;20048;-89
2021/09/20 02:13:36;;;;;;;0.10;0.10;;;;;;;;;;5080947;28;20134;-90
2021/09/20 02:16:02;;;;;;;0.10;0.10;;;;;;;;;;5097587;28;20122;-90
2021/09/20 02:18:28;;;;;;;0.10;0.10;;;;;;;;;;5097615;28;20482;-90
2021/09/20 02:20:54;;;;;;;0.10;0.10;;;;;;;;;;5097682;28;20035;-89
2021/09/20 02:23:20;;;;;;;0.20;0.20;;;;;;;;;;5097306;28;20123;-90
2021/09/20 02:25:46;;;;;;;0.10;0.10;;;;;;;;;;5097079;28;20043;-90
2021/09/20 02:28:12;;;;;;;0.10;0.10;;;;;;;;;;5097417;28;20035;-90
2021/09/20 02:30:38;;;;;;;0.10;0.10;;;;;;;;;;5114308;28;20048;-90
2021/09/20 02:33:04;;;;;;;0.10;0.10;;;;;;;;;;5096976;28;20051;-90
2021/09/20 02:35:30;;;;;;;0.10;0.10;;;;;;;;;;5097279;28;20048;-89
2021/09/20 02:37:56;;;;;;;0.10;0.10;;;;;;;;;;5097546;28;20111;-90
2021/09/20 02:40:22;;;;;;;0.10;0.10;;;;;;;;;;5097150;28;20480;-89
2021/09/20 02:42:48;;;;;;;0.10;0.10;;;;;;;;;;5113780;28;20035;-90
2021/09/20 02:45:14;;;;;;;0.10;0.10;;;;;;;;;;5096990;28;20560;-89
2021/09/20 02:47:40;;;;;;;0.10;0.10;;;;;;;;;;5080242;28;20479;-89
2021/09/20 02:50:06;;;;;;;0.10;0.10;;;;;;;;;;5080341;28;20031;-89
2021/09/20 02:52:32;;;;;;;0.10;0.10;;;;;;;;;;5097066;28;20044;-90
2021/09/20 02:54:58;;;;;;;0.20;0.20;;;;;;;;;;5097178;28;21063;-90
2021/09/20 02:57:24;;;;;;;0.10;0.10;;;;;;;;;;5096825;28;20181;-89
2021/09/20 02:59:50;;;;;;;0.10;0.10;;;;;;;;;;5096860;28;20466;-89
2021/09/20 03:02:16;;;;;;;0.10;0.10;;;;;;;;;;5080130;28;20439;-90
2021/09/20 03:04:42;;;;;;;0.10;0.10;;;;;;;;;;5096979;28;20042;-90
2021/09/20 03:07:08;;;;;;;0.10;0.10;;;;;;;;;;5096886;28;20140;-90
2021/09/20 03:09:34;;;;;;;0.10;0.10;;;;;;;;;;5096789;28;20522;-91
2021/09/20 03:12:00;;;;;;;0.10;0.10;;;;;;;;;;5096690;28;20047;-89
2021/09/20 03:14:26;;;;;;;0.10;0.10;;;;;;;;;;5113763;28;20036;-90
2021/09/20 03:16:52;;;;;;;0.10;0.10;;;;;;;;;;5096433;28;20420;-90
2021/09/20 03:19:18;;;;;;;0.10;0.10;;;;;;;;;;5079751;28;20031;-89
2021/09/20 03:21:44;;;;;;;0.10;0.10;;;;;;;;;;5078937;28;20094;-88
2021/09/20 03:24:12;;;;;;;0.10;0.10;;;;;;;;;;5078966;28;20042;-89
2021/09/20 03:26:38;;;;;;;0.10;0.10;;;;;;;;;;5096258;28;20050;-88
2021/09/20 03:29:04;;;;;;;0.10;0.10;;;;;;;;;;5095832;28;20402;-89
2021/09/20 03:31:30;;;;;;;0.10;0.10;;;;;;;;;;5096107;28;20420;-88
2021/09/20 03:33:56;;;;;;;0.10;0.10;;;;;;;;;;5095551;28;20059;-88
2021/09/20 03:36:22;;;;;;;0.10;0.10;;;;;;;;;;5095234;28;20099;-88
2021/09/20 03:38:48;;;;;;;0.10;0.10;;;;;;;;;;5095036;28;20043;-88
2021/09/20 03:41:14;;;;;;;0.10;0.10;;;;;;;;;;5095415;28;20040;-89
2021/09/20 03:43:40;;;;;;;0.10;0.10;;;;;;;;;;5095493;28;20040;-89
2021/09/20 03:46:06;;;;;;;0.10;0.10;;;;;;;;;;5112491;28;20071;-89
2021/09/20 03:48:32;;;;;;;0.10;0.10;;;;;;;;;;5112450;28;20075;-89
2021/09/20 03:50:58;;;;;;;0.10;0.10;;;;;;;;;;5095299;28;20036;-89
2021/09/20 03:53:24;;;;;;;0.30;0.30;;;;;;;;;;5095386;28;20429;-89
2021/09/20 03:55:50;;;;;;;0.10;0.10;;;;;;;;;;5095615;28;20040;-89
2021/09/20 03:58:16;;;;;;;0.20;0.20;;;;;;;;;;5078407;28;20506;-89
2021/09/20 04:00:42;;;;;;;0.73;0.73;;;;;;;;;;5078653;28;20040;-90
2021/09/20 04:03:09;;;;;;;0.20;0.20;;;;;;;;;;5095818;28;20440;-90
2021/09/20 04:05:35;;;;;;;0.90;0.43;;;;;;;;;;5095640;28;20095;-90
2021/09/20 04:08:01;;;;;;;0.10;0.10;;;;;;;;;;5079035;28;20059;-91
2021/09/20 04:10:27;;;;;;;0.10;0.10;;;;;;;;;;5078650;28;20035;-90
2021/09/20 04:12:53;;;;;;;0.10;0.10;;;;;;;;;;5095548;28;20367;-90
2021/09/20 04:15:19;;;;;;;0.10;0.10;;;;;;;;;;5095167;28;20042;-91
2021/09/20 04:17:45;;;;;;;0.10;0.10;;;;;;;;;;5095442;28;20579;-91
2021/09/20 04:20:12;;;;;;;0.10;0.10;;;;;;;;;;5078276;28;20042;-90
2021/09/20 04:22:38;;;;;;;0.10;0.10;;;;;;;;;;5078545;28;20047;-90
2021/09/20 04:25:04;;;;;;;0.10;0.10;;;;;;;;;;5095477;28;20032;-90
2021/09/20 04:27:30;;;;;;;0.10;0.10;;;;;;;;;;5077932;28;20127;-90
2021/09/20 04:29:56;;;;;;;0.10;0.10;;;;;;;;;;5095454;28;20106;-91
2021/09/20 04:32:22;;;;;;;0.10;0.10;;;;;;;;;;5094903;28;20616;-90
2021/09/20 04:34:48;;;;;;;0.10;0.10;;;;;;;;;;5095333;28;20043;-91
2021/09/20 04:37:16;;;;;;;0.10;0.10;;;;;;;;;;5078034;28;20043;-90
2021/09/20 04:39:42;;;;;;;0.10;0.10;;;;;;;;;;5095121;28;20041;-90
2021/09/20 04:42:08;;;;;;;0.10;0.10;;;;;;;;;;5095046;28;20126;-89
2021/09/20 04:44:34;;;;;;;0.10;0.10;;;;;;;;;;5111767;28;20031;-90
2021/09/20 04:47:00;;;;;;;0.10;0.10;;;;;;;;;;5077983;28;20094;-90
2021/09/20 04:49:26;;;;;;;0.10;0.10;;;;;;;;;;5077486;28;20237;-90
2021/09/20 04:51:52;;;;;;;0.10;0.10;;;;;;;;;;5094221;28;20058;-89
2021/09/20 04:54:18;;;;;;;0.10;0.10;;;;;;;;;;5094621;28;20403;-89
2021/09/20 04:56:44;;;;;;;0.10;0.10;;;;;;;;;;5111958;28;20044;-88
2021/09/20 04:59:10;;;;;;;0.10;0.10;;;;;;;;;;5077851;28;20092;-89
2021/09/20 05:01:36;;;;;;;0.10;0.10;;;;;;;;;;5094718;28;20058;-90
2021/09/20 05:04:02;;;;;;;0.10;0.10;;;;;;;;;;5077447;28;20066;-90
2021/09/20 05:06:27;;;;;;;0.20;0.20;;;;;;;;;;5094766;28;20403;-88
2021/09/20 05:08:53;;;;;;;0.10;0.10;;;;;;;;;;5094065;28;20057;-88
2021/09/20 05:11:19;;;;;;;0.10;0.10;;;;;;;;;;5077254;28;20082;-88
2021/09/20 05:13:45;;;;;;;0.10;0.10;;;;;;;;;;5094506;28;20079;-89
2021/09/20 05:16:11;;;;;;;0.20;0.20;;;;;;;;;;5094382;28;20150;-90
2021/09/20 05:18:37;;;;;;;0.10;0.10;;;;;;;;;;5094137;28;20036;-89
2021/09/20 05:21:03;;;;;;;0.10;0.10;;;;;;;;;;5077631;28;20339;-90
2021/09/20 05:23:29;;;;;;;0.30;0.30;;;;;;;;;;5094599;28;20123;-90
2021/09/20 05:25:55;;;;;;;0.10;0.10;;;;;;;;;;5094566;28;20092;-91
2021/09/20 05:28:21;;;;;;;0.10;0.10;;;;;;;;;;5077639;28;20048;-89
2021/09/20 05:30:47;;;;;;;0.22;0.22;;;;;;;;;;5094225;28;20490;-91
2021/09/20 05:33:15;;;;;;;0.10;0.10;;;;;;;;;;5094156;28;20063;-91
2021/09/20 05:35:41;;;;;;;0.10;0.10;;;;;;;;;;5094638;28;20130;-91
2021/09/20 05:38:07;;;;;;;0.10;0.10;;;;;;;;;;5078225;28;20097;-92
2021/09/20 05:40:33;;;;;;;0.10;0.10;;;;;;;;;;5078530;28;20075;-92
2021/09/20 05:43:00;;;;;;;0.10;0.10;;;;;;;;;;5094503;28;20452;-91
2021/09/20 05:45:26;;;;;;;0.10;0.10;;;;;;;;;;5094533;28;20132;-91
2021/09/20 05:47:52;;;;;;;0.10;0.10;;;;;;;;;;5094667;28;20130;-91
2021/09/20 05:50:19;;;;;;;0.10;0.10;;;;;;;;;;5095047;28;20403;-91
2021/09/20 05:52:45;;;;;;;0.10;0.10;;;;;;;;;;5094725;28;20040;-91
2021/09/20 05:55:12;;;;;;;0.10;0.10;;;;;;;;;;5111237;28;20044;-89
2021/09/20 05:57:38;;;;;;;0.10;0.10;;;;;;;;;;5094908;28;20115;-91
2021/09/20 06:00:05;;;;;;;0.10;0.10;;;;;;;;;;5094648;28;20129;-90
2021/09/20 06:02:30;;;;;;;0.10;0.10;;;;;;;;;;5097640;28;20254;-91
2021/09/20 06:04:56;;;;;;;0.55;0.30;;;;;;;;;;5098708;28;20119;-91
2021/09/20 06:07:22;;;;;;;0.10;0.10;;;;;;;;;;5081575;28;20062;-93
2021/09/20 06:09:48;;;;;;;0.10;0.10;;;;;;;;;;5098572;28;20127;-93
2021/09/20 06:12:14;;;;;;;0.10;0.10;;;;;;;;;;5098355;28;20043;-90
2021/09/20 06:14:40;;;;;;;0.10;0.10;;;;;;;;;;5098145;28;20115;-91
2021/09/20 06:17:06;;;;;;;0.10;0.10;;;;;;;;;;5081668;28;20510;-91
2021/09/20 06:19:32;;;;;;;0.10;0.10;;;;;;;;;;5081797;28;20036;-93
2021/09/20 06:21:58;;;;;;;0.10;0.10;;;;;;;;;;5081894;28;20043;-91
2021/09/20 06:24:24;;;;;;;0.10;0.10;;;;;;;;;;5081059;28;20067;-91
2021/09/20 06:26:50;;;;;;;0.10;0.10;;;;;;;;;;5098280;28;20387;-92
2021/09/20 06:29:16;;;;;;;0.10;0.10;;;;;;;;;;5097921;28;20390;-89
2021/09/20 06:31:42;;;;;;;0.10;0.10;;;;;;;;;;5097384;28;20116;-90
2021/09/20 06:34:08;;;;;;;0.10;0.10;;;;;;;;;;5080388;28;20132;-90
2021/09/20 06:36:34;;;;;;;0.10;0.10;;;;;;;;;;5080866;28;20043;-94
2021/09/20 06:39:00;;;;;;;0.10;0.10;;;;;;;;;;5082739;28;20347;-93
2021/09/20 06:41:26;;;;;;;0.95;0.20;;;;;;;;;;5079947;28;20181;-87
2021/09/20 06:43:52;;;;;;;0.10;0.10;;;;;;;;;;5113794;28;20036;-87
2021/09/20 06:46:18;;;;;;;0.10;0.10;;;;;;;;;;5096506;28;20039;-87
2021/09/20 06:48:44;;;;;;;0.10;0.10;;;;;;;;;;5113442;28;20042;-86
2021/09/20 06:51:10;;;;;;;0.20;0.20;;;;;;;;;;5113827;28;20040;-87
2021/09/20 06:53:36;;;;;;;0.10;0.10;;;;;;;;;;5096788;28;20138;-86
2021/09/20 06:56:02;;;;;;;0.10;0.10;;;;;;;;;;5096564;28;20043;-86
2021/09/20 06:58:28;;;;;;;0.10;0.10;;;;;;;;;;5113282;28;20075;-88
2021/09/20 07:00:54;;;;;;;0.10;0.10;;;;;;;;;;5096387;28;20058;-87
2021/09/20 07:03:20;;;;;;;0.10;0.10;;;;;;;;;;5079508;28;20050;-89
2021/09/20 07:05:46;;;;;;;0.10;0.10;;;;;;;;;;5096529;28;20050;-88
2021/09/20 07:08:12;;;;;;;0.10;0.10;;;;;;;;;;5096555;28;20433;-89
2021/09/20 07:10:38;;;;;;;0.10;0.10;;;;;;;;;;5096447;28;20141;-95
2021/09/20 07:13:09;;;;;;;0.10;0.10;;;;;;;;;;5078753;28;20077;-89
2021/09/20 07:15:36;;;;;;;0.10;0.10;;;;;;;;;;5080292;28;20435;-89
2021/09/20 07:18:02;;;;;;;0.10;0.10;;;;;;;;;;5079359;28;20127;-90
2021/09/20 07:20:28;;;;;;;0.10;0.10;;;;;;;;;;5113523;28;20145;-90
2021/09/20 07:22:54;;;;;;;0.50;0.20;;;;;;;;;;5096579;28;20120;-90
2021/09/20 07:25:21;;;;;;;0.10;0.10;;;;;;;;;;5096306;28;20040;-90
2021/09/20 07:27:47;;;;;;;0.10;0.10;;;;;;;;;;5079722;28;20075;-91
2021/09/20 07:30:19;;;;;;;1.55;0.85;;;;;;;;;;5079823;28;20090;-92
2021/09/20 07:32:49;;;;;;;0.10;0.10;;;;;;;;;;5113712;28;20047;-90
2021/09/20 07:35:16;;;;;;;0.10;0.10;;;;;;;;;;5079475;28;20487;-90
2021/09/20 07:37:43;;;;;;;0.10;0.10;;;;;;;;;;5097116;28;20395;-91
2021/09/20 07:40:09;;;;;;;0.10;0.10;;;;;;;;;;5081679;28;20151;-90
2021/09/20 07:42:35;;;;;;;0.10;0.10;;;;;;;;;;5088276;28;20032;-91
2021/09/20 07:45:02;;;;;;;0.10;0.10;;;;;;;;;;5105421;28;20036;-90
2021/09/20 07:47:28;;;;;;;0.20;0.20;;;;;;;;;;5080422;28;20058;-90
2021/09/20 07:49:54;;;;;;;0.17;0.17;;;;;;;;;;5096205;28;20081;-94
2021/09/20 07:52:20;;;;;;;0.13;0.13;;;;;;;;;;5096508;28;20047;-92
2021/09/20 07:54:46;;;;;;;0.10;0.10;;;;;;;;;;5113665;28;20053;-92
2021/09/20 07:57:12;;;;;;;0.10;0.10;;;;;;;;;;5096634;28;20394;-92
2021/09/20 07:59:38;;;;;;;0.10;0.10;;;;;;;;;;5096501;28;20038;-92
2021/09/20 08:02:04;;;;;;;0.10;0.10;;;;;;;;;;5079350;28;20043;-92
2021/09/20 08:04:30;;;;;;;0.10;0.10;;;;;;;;;;5079372;28;20394;-94
2021/09/20 08:06:56;;;;;;;0.10;0.10;;;;;;;;;;5079415;28;20047;-90
2021/09/20 08:09:22;;;;;;;0.10;0.10;;;;;;;;;;5078977;28;20051;-92
2021/09/20 08:11:48;;;;;;;0.10;0.10;;;;;;;;;;5079414;28;20040;-91
2021/09/20 08:14:14;;;;;;;0.20;0.20;;;;;;;;;;5095977;28;20126;-91
2021/09/20 08:16:40;;;;;;;0.10;0.10;;;;;;;;;;5078439;28;20043;-90
2021/09/20 08:19:07;;;;;;;0.10;0.10;;;;;;;;;;5094993;28;20035;-89
2021/09/20 08:21:33;;;;;;;0.10;0.10;;;;;;;;;;5078186;28;20081;-89
2021/09/20 08:23:59;;;;;;;0.10;0.10;;;;;;;;;;5094849;28;20040;-89
2021/09/20 08:26:25;;;;;;;0.10;0.10;;;;;;;;;;5079262;28;20456;-93
2021/09/20 08:28:51;;;;;;;0.10;0.10;;;;;;;;;;5080168;28;20156;-91
2021/09/20 08:31:17;;;;;;;0.10;0.10;;;;;;;;;;5078125;28;20172;-90
2021/09/20 08:33:43;;;;;;;0.10;0.10;;;;;;;;;;5077779;28;20414;-90
2021/09/20 08:36:11;;;;;;;0.10;0.10;;;;;;;;;;5077709;28;20251;-90
2021/09/20 08:38:37;;;;;;;0.10;0.10;;;;;;;;;;5078142;28;20065;-89
2021/09/20 08:41:03;;;;;;;0.10;0.10;;;;;;;;;;5078808;28;20046;-89
2021/09/20 08:43:29;;;;;;;0.10;0.10;;;;;;;;;;5094283;28;20039;-88
2021/09/20 08:45:58;;;;;;;0.10;0.10;;;;;;;;;;5077426;28;20036;-92
2021/09/20 08:48:24;;;;;;;0.10;0.10;;;;;;;;;;5077633;28;20398;-90
2021/09/20 08:50:50;;;;;;;0.10;0.10;;;;;;;;;;5078121;28;20039;-92
2021/09/20 08:53:16;;;;;;;0.10;0.10;;;;;;;;;;5079082;28;20546;-91
2021/09/20 08:55:42;;;;;;;0.10;0.10;;;;;;;;;;5079021;28;20039;-93
2021/09/20 08:58:08;;;;;;;0.10;0.10;;;;;;;;;;5112998;28;20036;-93
2021/09/20 09:00:34;;;;;;;0.10;0.10;;;;;;;;;;5078863;28;20046;-93
2021/09/20 09:03:02;;;;;;;0.10;0.10;;;;;;;;;;5096181;28;20039;-94
2021/09/20 09:05:29;;;;;;;0.20;0.20;;;;;;;;;;5080200;28;20035;-92
2021/09/20 09:07:56;;;;;;;0.30;0.30;;;;;;;;;;5095492;28;20039;-91
2021/09/20 09:10:23;;;;;;;0.10;0.10;;;;;;;;;;5078443;28;20387;-93
2021/09/20 09:12:49;;;;;;;0.22;0.22;;;;;;;;;;5095442;28;20036;-92
2021/09/20 09:15:15;;;;;;;0.10;0.10;;;;;;;;;;5078336;28;20047;-93
2021/09/20 09:17:45;;;;;;;0.10;0.10;;;;;;;;;;5078652;28;20035;-91
2021/09/20 09:20:14;;;;;;;0.10;0.10;;;;;;;;;;5096121;28;20047;-95
2021/09/20 09:22:48;;;;;;;0.10;0.10;;;;;;;;;;5096441;28;20046;-96
2021/09/20 09:25:16;;;;;;;0.20;0.20;;;;;;;;;;5096595;28;20059;-89
2021/09/20 09:27:42;;;;;;;0.20;0.20;;;;;;;;;;5094836;28;20077;-89
2021/09/20 09:30:08;;;;;;;0.10;0.10;;;;;;;;;;5094867;28;20483;-91
2021/09/20 09:32:34;;;;;;;0.10;0.10;;;;;;;;;;5111331;28;20086;-91
2021/09/20 09:35:03;;;;;;;0.10;0.10;;;;;;;;;;5077650;28;20449;-90
2021/09/20 09:37:30;;;;;;;0.10;0.10;;;;;;;;;;5080553;28;20046;-90
2021/09/20 09:40:10;;;;;;;0.10;0.10;;;;;;;;;;5081872;28;20045;-91
2021/09/20 09:42:36;;;;;;;0.20;0.20;;;;;;;;;;5082126;28;20039;-91
2021/09/20 09:45:15;;;;;;;0.10;0.10;;;;;;;;;;5080257;28;20385;-93
2021/09/20 09:47:41;;;;;;;0.10;0.10;;;;;;;;;;5081261;28;20044;-93
2021/09/20 09:50:18;;;;;;;0.10;0.10;;;;;;;;;;5063841;28;20075;-92
2021/09/20 09:52:44;;;;;;;0.10;0.10;;;;;;;;;;5081617;28;20048;-92
2021/09/20 09:55:12;;;;;;;0.10;0.10;;;;;;;;;;5079429;28;20118;-95
2021/09/20 09:57:38;;;;;;;0.20;0.20;;;;;;;;;;5081216;28;20520;-95
2021/09/20 10:00:05;;;;;;;0.10;0.10;;;;;;;;;;5084909;28;20032;-93
2021/09/20 10:02:32;;;;;;;0.30;0.30;;;;;;;;;;5084312;28;20063;-96
2021/09/20 10:04:59;;;;;;;0.10;0.10;;;;;;;;;;5082877;28;20040;-94
2021/09/20 10:07:26;;;;;;;0.10;0.10;;;;;;;;;;5061926;28;20131;-93
2021/09/20 10:09:52;;;;;;;0.10;0.10;;;;;;;;;;5061956;28;20557;-92
2021/09/20 10:12:18;;;;;;;0.10;0.10;;;;;;;;;;5061562;28;20079;-94
2021/09/20 10:14:44;;;;;;;0.10;0.10;;;;;;;;;;5078747;28;20390;-90
2021/09/20 10:17:15;;;;;;;0.10;0.10;;;;;;;;;;5062451;28;20046;-95
2021/09/20 10:19:45;;;;;;;0.10;0.10;;;;;;;;;;5088167;28;20043;-95
2021/09/20 10:22:14;;;;;;;0.10;0.10;;;;;;;;;;5072693;28;20059;-95
2021/09/20 10:24:41;;;;;;;0.10;0.10;;;;;;;;;;5083319;28;20051;-95
2021/09/20 10:27:09;;;;;;;0.13;0.13;;;;;;;;;;5099291;28;20081;-96
2021/09/20 10:29:50;;;;;;;0.10;0.10;;;;;;;;;;5069347;28;20127;-96
2021/09/20 10:32:31;;;;;;;0.10;0.10;;;;;;;;;;5083380;28;20044;-93
2021/09/20 10:35:17;;;;;;;0.10;0.10;;;;;;;;;;5081212;28;20048;-92
2021/09/20 10:37:44;;;;;;;0.30;0.30;;;;;;;;;;5077322;28;20511;-94
2021/09/20 10:40:10;;;;;;;0.10;0.10;;;;;;;;;;5078539;28;20117;-94
2021/09/20 10:42:37;;;;;;;0.10;0.10;;;;;;;;;;5077744;28;20504;-94
2021/09/20 10:45:09;;;;;;;0.10;0.10;;;;;;;;;;5077334;28;20177;-93
2021/09/20 10:47:42;;;;;;;0.10;0.10;;;;;;;;;;5059931;28;20040;-93
2021/09/20 10:50:08;;;;;;;0.20;0.20;;;;;;;;;;5077691;28;20123;-95
2021/09/20 10:52:34;;;;;;;0.10;0.10;;;;;;;;;;5060863;28;20075;-93
2021/09/20 10:55:04;;;;;;;0.10;0.10;;;;;;;;;;5061085;28;20482;-95
2021/09/20 10:57:31;;;;;;;0.10;0.10;;;;;;;;;;5077521;28;20051;-96
2021/09/20 11:00:15;;;;;;;0.10;0.10;;;;;;;;;;5064735;28;20040;-94
2021/09/20 11:02:44;;;;;;;0.10;0.10;;;;;;;;;;5099191;28;20036;-96
2021/09/20 11:05:10;;;;;;;0.13;0.13;;;;;;;;;;5065336;28;20047;-93
2021/09/20 11:07:46;;;;;;;0.20;0.20;;;;;;;;;;5096029;28;20040;-92
2021/09/20 11:10:13;;;;;;;0.10;0.10;;;;;;;;;;5091399;28;20040;-91
2021/09/20 11:12:58;;;;;;;0.10;0.10;;;;;;;;;;5095418;28;20089;-91
2021/09/20 11:15:24;;;;;;;0.10;0.10;;;;;;;;;;5113150;28;20069;-93
2021/09/20 11:17:51;;;;;;;0.10;0.10;;;;;;;;;;5082445;28;20107;-92
2021/09/20 11:20:28;;;;;;;0.20;0.20;;;;;;;;;;5100946;28;20035;-91
2021/09/20 11:23:13;;;;;;;0.10;0.10;;;;;;;;;;5135645;28;20054;-90
2021/09/20 11:25:39;;;;;;;0.10;0.10;;;;;;;;;;5125989;28;20044;-95
2021/09/20 11:28:05;;;;;;;0.10;0.10;;;;;;;;;;5116456;28;20046;-95
2021/09/20 11:30:31;;;;;;;0.10;0.10;;;;;;;;;;5083352;28;20063;-95
2021/09/20 11:33:00;;;;;;;0.10;0.10;;;;;;;;;;5084588;28;20193;-96
2021/09/20 11:35:28;;;;;;;0.10;0.10;;;;;;;;;;5081026;28;20177;-91
2021/09/20 11:37:54;;;;;;;0.10;0.10;;;;;;;;;;5098173;28;20118;-95
2021/09/20 11:40:38;;;;;;;0.20;0.20;;;;;;;;;;5083601;28;20151;-96
2021/09/20 11:43:05;;;;;;;0.10;0.10;;;;;;;;;;5087634;28;20455;-96
2021/09/20 11:45:32;;;;;;;0.10;0.10;;;;;;;;;;5101522;28;20075;-95
2021/09/20 11:48:02;;;;;;;0.10;0.10;;;;;;;;;;5086004;28;20035;-96
2021/09/20 11:50:29;;;;;;;0.10;0.10;;;;;;;;;;5104337;28;20069;-96
2021/09/20 11:52:56;;;;;;;0.10;0.10;;;;;;;;;;5085498;28;20031;-95
2021/09/20 11:55:23;;;;;;;0.10;0.10;;;;;;;;;;5096694;28;20035;-96
2021/09/20 11:57:50;;;;;;;0.10;0.10;;;;;;;;;;5096719;28;20394;-94
2021/09/20 12:00:17;;;;;;;0.10;0.10;;;;;;;;;;5096996;28;20035;-95
2021/09/20 12:02:50;;;;;;;0.10;0.10;;;;;;;;;;5096530;28;20402;-94
2021/09/20 12:05:17;;;;;;;0.10;0.10;;;;;;;;;;5112902;28;20036;-95
2021/09/20 12:07:50;;;;;;;0.10;0.10;;;;;;;;;;5113896;28;20042;-93
2021/09/20 12:10:17;;;;;;;0.10;0.10;;;;;;;;;;5096466;28;20039;-95
2021/09/20 12:12:47;;;;;;;0.20;0.20;;;;;;;;;;5096341;28;20043;-95
2021/09/20 12:15:13;;;;;;;0.10;0.10;;;;;;;;;;5096320;28;20526;-94
2021/09/20 12:17:47;;;;;;;0.10;0.10;;;;;;;;;;5095835;28;20054;-93
2021/09/20 12:20:13;;;;;;;0.10;0.10;;;;;;;;;;5079233;28;20058;-94
2021/09/20 12:22:42;;;;;;;0.20;0.20;;;;;;;;;;5095743;28;20042;-94
2021/09/20 12:25:37;;;;;;;0.20;0.20;;;;;;;;;;5080314;28;20032;-95
2021/09/20 12:28:04;;;;;;;0.10;0.10;;;;;;;;;;5072391;28;20047;-89
2021/09/20 12:30:30;;;;;;;0.10;0.10;;;;;;;;;;5094979;28;20465;-90
2021/09/20 12:33:03;;;;;;;0.10;0.10;;;;;;;;;;5094577;28;20107;-90
2021/09/20 12:35:29;;;;;;;0.10;0.10;;;;;;;;;;5095214;28;20043;-91
2021/09/20 12:38:12;;;;;;;0.20;0.20;;;;;;;;;;5095040;28;20414;-90
2021/09/20 12:40:38;;;;;;;0.10;0.10;;;;;;;;;;5095086;28;20039;-89
2021/09/20 12:43:09;;;;;;;0.20;0.20;;;;;;;;;;5094766;28;20046;-90
2021/09/20 12:45:39;;;;;;;0.20;0.20;;;;;;;;;;5094644;28;20114;-90
2021/09/20 12:48:06;;;;;;;0.20;0.20;;;;;;;;;;5077805;28;20490;-89
2021/09/20 12:50:46;;;;;;;0.20;0.20;;;;;;;;;;5111217;28;20092;-89
2021/09/20 12:53:13;;;;;;;0.10;0.10;;;;;;;;;;5111361;28;20074;-90
2021/09/20 12:55:40;;;;;;;0.10;0.10;;;;;;;;;;5094624;28;20691;-90
2021/09/20 12:58:07;;;;;;;0.10;0.10;;;;;;;;;;5111376;28;20035;-90
2021/09/20 13:00:33;;;;;;;0.10;0.10;;;;;;;;;;5094747;28;20123;-91
2021/09/20 13:03:15;;;;;;;0.10;0.10;;;;;;;;;;5111155;28;20371;-88
2021/09/20 13:05:45;;;;;;;0.10;0.10;;;;;;;;;;5111042;28;20118;-88
2021/09/20 13:08:11;;;;;;;0.20;0.20;;;;;;;;;;5077427;28;20494;-89
2021/09/20 13:10:41;;;;;;;0.10;0.10;;;;;;;;;;5093176;28;20124;-88
2021/09/20 13:13:07;;;;;;;0.10;0.10;;;;;;;;;;5094640;28;20525;-88
2021/09/20 13:15:33;;;;;;;0.10;0.10;;;;;;;;;;5077040;28;20066;-88
2021/09/20 13:18:01;;;;;;;0.10;0.10;;;;;;;;;;5094074;28;20436;-88
2021/09/20 13:20:31;;;;;;;0.10;0.10;;;;;;;;;;5077395;28;20167;-88
2021/09/20 13:23:01;;;;;;;0.10;0.10;;;;;;;;;;5094447;28;20032;-88
2021/09/20 13:25:33;;;;;;;0.45;0.45;;;;;;;;;;5094030;28;20122;-88
2021/09/20 13:27:59;;;;;;;;;;;;;;;;;;5094470;28;20442;-88
2021/09/20 13:30:25;;;;;;;0.10;0.10;;;;;;;;;;5110856;28;19916;-87
2021/09/20 13:32:52;;;;;;;0.10;0.10;;;;;;;;;;5093621;28;20051;-88
2021/09/20 13:35:25;;;;;;;0.10;0.10;;;;;;;;;;5093919;28;20040;-88
2021/09/20 13:37:51;;;;;;;0.10;0.10;;;;;;;;;;5093760;28;20339;-89
2021/09/20 13:40:17;;;;;;;0.10;0.10;;;;;;;;;;5093837;28;20122;-88
2021/09/20 13:42:43;;;;;;;0.10;0.10;;;;;;;;;;5077004;28;20039;-89
2021/09/20 13:45:09;;;;;;;0.20;0.20;;;;;;;;;;5093566;28;20039;-89
2021/09/20 13:47:35;;;;;;;0.10;0.10;;;;;;;;;;5093816;28;20047;-89
2021/09/20 13:50:02;;;;;;;0.40;0.40;;;;;;;;;;5093960;28;20035;-89
2021/09/20 13:52:28;;;;;;;0.10;0.10;;;;;;;;;;5093817;28;20119;-89
2021/09/20 13:54:54;;;;;;;0.10;0.10;;;;;;;;;;5093797;28;20078;-90
2021/09/20 13:57:20;;;;;;;0.10;0.10;;;;;;;;;;5110786;28;20048;-86
2021/09/20 13:59:46;;;;;;;0.10;0.10;;;;;;;;;;5112085;28;20040;-87
2021/09/20 14:02:11;;;;;;;0.10;0.10;;;;;;;;;;5093836;28;20043;-86
2021/09/20 14:04:37;;;;;;;0.10;0.10;;;;;;;;;;5076864;28;20078;-87
2021/09/20 14:07:03;;;;;;;0.20;0.20;;;;;;;;;;5093567;28;20130;-87
2021/09/20 14:09:29;;;;;;;0.10;0.10;;;;;;;;;;5110569;28;20040;-87
2021/09/20 14:11:55;;;;;;;0.10;0.10;;;;;;;;;;5093399;28;20042;-87
2021/09/20 14:14:21;;;;;;;0.10;0.10;;;;;;;;;;5093422;28;20046;-91
2021/09/20 14:16:48;;;;;;;0.20;0.20;;;;;;;;;;5070082;28;20059;-87
2021/09/20 14:19:15;;;;;;;0.10;0.10;;;;;;;;;;5073524;28;20149;-87
2021/09/20 14:21:41;;;;;;;0.10;0.10;;;;;;;;;;5073234;28;20040;-87
2021/09/20 14:24:07;;;;;;;0.10;0.10;;;;;;;;;;5076649;28;20040;-87
2021/09/20 14:26:33;;;;;;;0.10;0.10;;;;;;;;;;5060054;28;20054;-87
2021/09/20 14:28:59;;;;;;;0.10;0.10;;;;;;;;;;5094815;28;20048;-86
2021/09/20 14:31:25;;;;;;;0.10;0.10;;;;;;;;;;5093806;28;20111;-88
2021/09/20 14:33:50;;;;;;;0.20;0.20;;;;;;;;;;5093217;28;20059;-87
2021/09/20 14:36:17;;;;;;;0.20;0.20;;;;;;;;;;5108747;28;20051;-86
2021/09/20 14:38:43;;;;;;;0.15;0.15;;;;;;;;;;5114527;28;20063;-87
2021/09/20 14:41:09;;;;;;;0.10;0.10;;;;;;;;;;5096415;28;20119;-86
2021/09/20 14:43:36;;;;;;;0.10;0.10;;;;;;;;;;5096596;28;20431;-87